Time;durP1;ratioP1;P1;durP2;ratioP2;P2;SDS_P1;SDS_P2;PMS_P1;PMS_P2;Temp;Humidity;BMP_temperature;BMP_pressure;BME280_temperature;BME280_humidity;BME280_pressure;Samples;Min_cycle;Max_cycle;Signal;HPM_P1;HPM_P2
2020/12/12 00:00:47;;;;;;;24.50;15.30;;;;;;;3.22;87.95;99142.50;126420;1093;104375;-78
2020/12/12 00:03:15;;;;;;;24.77;15.07;;;;;;;3.21;88.30;99152.84;126655;1093;104362;-76
2020/12/12 00:05:42;;;;;;;24.23;15.50;;;;;;;3.22;88.72;99159.69;126602;1098;104462;-78
2020/12/12 00:08:09;;;;;;;24.77;14.10;;;;;;;3.22;87.92;99162.27;126503;1100;104488;-77
2020/12/12 00:10:36;;;;;;;27.35;16.05;;;;;;;3.22;88.36;99149.38;126383;1093;105380;-78
2020/12/12 00:13:07;;;;;;;22.07;13.98;;;;;;;3.23;88.40;99156.23;126682;1099;104887;-77
2020/12/12 00:15:37;;;;;;;20.83;13.83;;;;;;;3.21;88.46;99153.69;126356;1093;104434;-78
2020/12/12 00:18:07;;;;;;;22.50;13.83;;;;;;;3.22;88.77;99154.54;126700;1093;104436;-78
2020/12/12 00:20:35;;;;;;;22.57;13.80;;;;;;;3.21;88.56;99158.00;126612;1093;104488;-77
2020/12/12 00:23:03;;;;;;;23.20;13.80;;;;;;;3.20;88.44;99152.00;126619;1098;104516;-78
2020/12/12 00:25:30;;;;;;;22.97;13.43;;;;;;;3.20;89.00;99144.27;126440;1100;104463;-77
2020/12/12 00:27:58;;;;;;;20.40;13.03;;;;;;;3.20;89.33;99151.15;126647;1098;104414;-76
2020/12/12 00:30:25;;;;;;;24.85;14.68;;;;;;;3.19;88.45;99149.45;126439;1099;104410;-78
2020/12/12 00:32:53;;;;;;;23.00;13.60;;;;;;;3.18;88.56;99143.45;126399;1098;104516;-77
2020/12/12 00:35:20;;;;;;;22.93;13.53;;;;;;;3.19;88.87;99149.45;126495;1094;104584;-78
2020/12/12 00:37:48;;;;;;;22.53;12.73;;;;;;;3.19;89.04;99146.87;126389;1093;104487;-78
2020/12/12 00:40:15;;;;;;;23.53;13.83;;;;;;;3.20;89.22;99143.42;126487;1095;104926;-78
2020/12/12 00:42:42;;;;;;;20.57;12.93;;;;;;;3.20;89.04;99141.69;126426;1093;104560;-78
2020/12/12 00:45:10;;;;;;;19.70;12.60;;;;;;;3.21;88.92;99137.38;126647;1098;104511;-78
2020/12/12 00:47:38;;;;;;;18.50;11.67;;;;;;;3.21;88.31;99134.80;126608;1098;102383;-78
2020/12/12 00:50:05;;;;;;;21.20;12.43;;;;;;;3.21;88.73;99132.23;126690;1098;104589;-78
2020/12/12 00:52:32;;;;;;;19.05;11.85;;;;;;;3.21;89.10;99143.38;126366;1100;104448;-77
2020/12/12 00:55:00;;;;;;;18.77;11.90;;;;;;;3.21;88.87;99138.23;126467;1100;104379;-76
2020/12/12 00:57:28;;;;;;;20.87;12.83;;;;;;;3.23;88.74;99145.93;126349;1093;104430;-77
2020/12/12 00:59:55;;;;;;;20.07;12.43;;;;;;;3.22;88.70;99139.92;126648;1098;104419;-77
2020/12/12 01:02:22;;;;;;;19.17;12.33;;;;;;;3.23;88.95;99140.77;126616;1098;104398;-78
2020/12/12 01:04:50;;;;;;;22.30;13.20;;;;;;;3.22;88.60;99131.35;126680;1098;106014;-77
2020/12/12 01:07:22;;;;;;;22.37;12.60;;;;;;;3.22;88.11;99128.77;126646;1098;102698;-78
2020/12/12 01:09:50;;;;;;;19.87;11.70;;;;;;;3.20;88.96;99135.69;126462;1093;104387;-77
2020/12/12 01:12:18;;;;;;;21.13;12.30;;;;;;;3.21;89.12;99132.23;126655;1093;104487;-77
2020/12/12 01:14:45;;;;;;;18.13;12.07;;;;;;;3.20;88.84;99136.53;126625;1093;104375;-78
2020/12/12 01:17:13;;;;;;;18.47;11.33;;;;;;;3.20;88.70;99121.08;126571;1098;104579;-78
2020/12/12 01:19:41;;;;;;;21.13;12.93;;;;;;;3.20;88.69;99140.84;126561;1094;104433;-77
2020/12/12 01:22:08;;;;;;;20.87;12.33;;;;;;;3.20;89.03;99130.53;126733;1098;104316;-78
2020/12/12 01:24:35;;;;;;;18.73;11.87;;;;;;;3.19;88.64;99137.42;126544;1098;104445;-77
2020/12/12 01:27:02;;;;;;;20.50;12.20;;;;;;;3.19;88.46;99134.84;126475;1098;104416;-78
2020/12/12 01:29:29;;;;;;;20.20;12.57;;;;;;;3.19;88.96;99131.41;126630;1098;104423;-78
2020/12/12 01:31:56;;;;;;;22.43;12.70;;;;;;;3.18;88.36;99121.99;126701;1098;103220;-78
2020/12/12 01:34:24;;;;;;;22.90;12.87;;;;;;;3.18;89.04;99140.03;126639;1093;104556;-76
2020/12/12 01:36:51;;;;;;;21.40;12.87;;;;;;;3.15;89.13;99133.21;126555;1099;105094;-77
2020/12/12 01:39:18;;;;;;;18.40;12.37;;;;;;;3.16;88.98;99128.91;126427;1094;104522;-78
2020/12/12 01:41:45;;;;;;;20.33;13.00;;;;;;;3.12;89.12;99117.82;126637;1093;104424;-77
2020/12/12 01:44:16;;;;;;;21.80;13.57;;;;;;;3.12;88.94;99135.01;126433;1093;104339;-77
2020/12/12 01:46:43;;;;;;;22.57;14.10;;;;;;;3.09;89.13;99119.61;126679;1093;102814;-78
2020/12/12 01:49:12;;;;;;;24.30;13.47;;;;;;;3.09;88.58;99123.04;126599;1092;104438;-79
2020/12/12 01:51:39;;;;;;;20.37;13.67;;;;;;;3.08;89.08;99123.08;126673;1093;104535;-78
2020/12/12 01:54:09;;;;;;;21.07;13.23;;;;;;;3.08;89.13;99128.23;126648;1098;104426;-78
2020/12/12 01:56:37;;;;;;;23.23;13.63;;;;;;;3.07;88.70;99118.80;126490;1093;104446;-78
2020/12/12 01:59:17;;;;;;;22.27;13.23;;;;;;;3.06;89.20;99114.53;126626;1093;104519;-79
2020/12/12 02:01:47;;;;;;;23.37;13.43;;;;;;;3.03;88.96;99118.84;126551;1093;104535;-78
2020/12/12 02:04:18;;;;;;;20.73;14.20;;;;;;;3.03;89.10;99113.69;126449;1098;104402;-78
2020/12/12 02:06:45;;;;;;;24.23;13.97;;;;;;;3.03;88.84;99126.56;126655;1093;104507;-77
2020/12/12 02:09:14;;;;;;;22.47;14.13;;;;;;;3.03;89.11;99107.69;126729;1093;104496;-77
2020/12/12 02:11:41;;;;;;;23.73;15.10;;;;;;;3.02;88.63;99117.14;126538;1093;104526;-78
2020/12/12 02:14:11;;;;;;;25.43;15.83;;;;;;;3.02;89.05;99126.59;126724;1093;105888;-77
2020/12/12 02:16:58;;;;;;;24.67;15.40;;;;;;;3.01;88.43;99128.32;126606;1098;104461;-78
2020/12/12 02:19:25;;;;;;;27.60;15.50;;;;;;;3.01;89.05;99109.45;126738;1098;104410;-77
2020/12/12 02:22:00;;;;;;;26.40;15.95;;;;;;;3.00;89.13;99113.75;126555;1098;104455;-77
2020/12/12 02:24:30;;;;;;;26.00;15.27;;;;;;;2.99;88.66;99113.78;126626;1098;104391;-77
2020/12/12 02:26:58;;;;;;;27.67;16.33;;;;;;;2.97;88.92;99103.52;126578;1093;104369;-77
2020/12/12 02:29:40;;;;;;;25.37;16.00;;;;;;;2.96;88.79;99113.84;126628;1093;102975;-78
2020/12/12 02:32:09;;;;;;;28.03;16.97;;;;;;;2.95;89.15;99125.03;126618;1093;104477;-78
2020/12/12 02:34:36;;;;;;;26.37;15.60;;;;;;;2.92;88.49;99122.52;126755;1093;104477;-77
2020/12/12 02:37:04;;;;;;;27.50;16.65;;;;;;;2.91;88.92;99124.25;126543;1093;104225;-77
2020/12/12 02:39:31;;;;;;;28.60;17.00;;;;;;;2.89;88.74;99131.16;126644;1093;104862;-78
2020/12/12 02:41:59;;;;;;;27.40;17.17;;;;;;;2.87;88.23;99116.58;126297;1093;104469;-77
2020/12/12 02:44:26;;;;;;;29.90;17.77;;;;;;;2.83;88.47;99120.95;126731;1094;104404;-78
2020/12/12 02:46:53;;;;;;;28.80;17.87;;;;;;;2.83;88.79;99120.95;126668;1093;102678;-78
2020/12/12 02:49:21;;;;;;;32.27;18.13;;;;;;;2.82;88.22;99123.55;126642;1093;104548;-78
2020/12/12 02:51:48;;;;;;;32.08;18.02;;;;;;;2.80;89.20;99128.73;126576;1093;104427;-78
2020/12/12 02:54:16;;;;;;;33.40;19.27;;;;;;;2.78;89.29;99133.07;126697;1093;104500;-78
2020/12/12 02:56:43;;;;;;;32.20;18.33;;;;;;;2.77;88.78;99121.08;126360;1094;105133;-78
2020/12/12 02:59:10;;;;;;;34.67;19.57;;;;;;;2.75;89.31;99138.28;126639;1098;104394;-78
2020/12/12 03:01:39;;;;;;;37.10;20.57;;;;;;;2.72;88.84;99130.62;126467;1096;104468;-77
2020/12/12 03:04:08;;;;;;;37.67;20.67;;;;;;;2.70;89.76;99135.80;126671;1093;104861;-77
2020/12/12 03:06:36;;;;;;;34.17;20.07;;;;;;;2.69;89.31;99146.97;126662;1093;104366;-77
2020/12/12 03:09:05;;;;;;;35.33;20.50;;;;;;;2.68;89.74;99132.37;126584;1098;104436;-78
2020/12/12 03:11:32;;;;;;;42.93;21.47;;;;;;;2.67;89.47;99135.83;126414;1095;104394;-78
2020/12/12 03:13:59;;;;;;;40.80;22.13;;;;;;;2.66;89.54;99139.28;126370;1093;104986;-77
2020/12/12 03:16:26;;;;;;;40.50;21.40;;;;;;;2.65;89.60;99131.59;126744;1098;104407;-77
2020/12/12 03:18:54;;;;;;;42.17;22.17;;;;;;;2.63;89.46;99139.34;126610;1093;104462;-77
2020/12/12 03:21:21;;;;;;;42.63;21.73;;;;;;;2.62;89.63;99132.50;126699;1093;104455;-78
2020/12/12 03:23:48;;;;;;;38.80;21.82;;;;;;;2.62;89.17;99137.64;126600;1093;104512;-77
2020/12/12 03:26:15;;;;;;;43.70;22.40;;;;;;;2.62;89.43;99137.64;126652;1098;104429;-78
2020/12/12 03:28:42;;;;;;;40.67;21.70;;;;;;;2.61;89.04;99143.67;126576;1093;104399;-76
2020/12/12 03:31:10;;;;;;;41.23;21.37;;;;;;;2.61;89.37;99147.97;126486;1100;104481;-78
2020/12/12 03:33:37;;;;;;;38.20;21.65;;;;;;;2.62;89.46;99147.09;126571;1093;104359;-76
2020/12/12 03:36:05;;;;;;;40.60;21.53;;;;;;;2.61;89.29;99146.24;126717;1098;105263;-77
2020/12/12 03:38:32;;;;;;;36.47;20.30;;;;;;;2.63;89.44;99149.64;126634;1094;104314;-77
2020/12/12 03:40:59;;;;;;;34.03;20.07;;;;;;;2.64;88.82;99146.19;126471;1099;104522;-77
2020/12/12 03:43:26;;;;;;;37.63;20.37;;;;;;;2.64;89.20;99150.48;126623;1098;104487;-77
2020/12/12 03:45:54;;;;;;;37.35;20.48;;;;;;;2.64;89.21;99145.34;126624;1093;104535;-78
2020/12/12 03:48:21;;;;;;;35.15;20.15;;;;;;;2.62;88.95;99147.09;126682;1098;104362;-77
2020/12/12 03:50:48;;;;;;;33.30;19.03;;;;;;;2.62;89.04;99168.53;126374;1093;104487;-77
2020/12/12 03:53:16;;;;;;;34.03;19.57;;;;;;;2.61;89.13;99141.09;126455;1100;104435;-77
2020/12/12 03:55:43;;;;;;;32.33;19.47;;;;;;;2.61;88.96;99147.97;126358;1100;104373;-77
2020/12/12 03:58:11;;;;;;;35.33;19.70;;;;;;;2.58;88.44;99143.73;126513;1098;104382;-77
2020/12/12 04:00:38;;;;;;;34.97;19.40;;;;;;;2.60;88.99;99143.70;126552;1093;104385;-76
2020/12/12 04:03:05;;;;;;;34.03;19.87;;;;;;;2.58;88.73;99159.17;126646;1098;104454;-77
2020/12/12 04:05:33;;;;;;;30.93;18.87;;;;;;;2.57;88.65;99144.61;126658;1098;104387;-77
2020/12/12 04:08:00;;;;;;;35.10;19.70;;;;;;;2.58;88.79;99151.45;126473;1100;105023;-77
2020/12/12 04:10:27;;;;;;;33.13;19.37;;;;;;;2.58;88.65;99151.45;126437;1098;105074;-77
2020/12/12 04:12:54;;;;;;;32.03;19.07;;;;;;;2.59;88.30;99162.59;126704;1093;104496;-77
2020/12/12 04:15:21;;;;;;;33.10;19.23;;;;;;;2.58;88.51;99155.75;126322;1096;104465;-77
2020/12/12 04:17:50;;;;;;;31.27;18.87;;;;;;;2.57;88.44;99154.05;126710;1098;104474;-77
2020/12/12 04:20:17;;;;;;;32.13;18.70;;;;;;;2.55;88.57;99177.25;126575;1093;104929;-77
2020/12/12 04:22:44;;;;;;;30.80;18.37;;;;;;;2.55;88.25;99155.81;126610;1093;104416;-77
2020/12/12 04:25:11;;;;;;;28.83;17.03;;;;;;;2.55;88.38;99171.25;126581;1093;104429;-78
2020/12/12 04:27:39;;;;;;;31.30;18.00;;;;;;;2.55;87.72;99166.10;126742;1098;104391;-77
2020/12/12 04:30:06;;;;;;;31.77;18.20;;;;;;;2.55;88.25;99160.95;126668;1098;104462;-77
2020/12/12 04:32:34;;;;;;;31.30;17.70;;;;;;;2.54;88.20;99157.53;126622;1093;104366;-78
2020/12/12 04:35:02;;;;;;;35.20;18.75;;;;;;;2.52;88.11;99168.73;126680;1098;104484;-77
2020/12/12 04:37:29;;;;;;;31.63;18.87;;;;;;;2.52;88.03;99163.59;126567;1093;104529;-77
2020/12/12 04:39:57;;;;;;;32.27;18.63;;;;;;;2.51;87.98;99161.86;126669;1099;104517;-77
2020/12/12 04:42:26;;;;;;;32.90;19.50;;;;;;;2.50;88.06;99173.03;126652;1093;104359;-77
2020/12/12 04:44:55;;;;;;;33.93;19.20;;;;;;;2.48;88.31;99159.34;126794;1098;104471;-77
2020/12/12 04:47:25;;;;;;;35.83;20.23;;;;;;;2.45;88.32;99169.69;126643;1098;104564;-77
2020/12/12 04:49:53;;;;;;;37.00;21.17;;;;;;;2.43;87.79;99173.14;126680;1098;104382;-77
2020/12/12 04:52:24;;;;;;;39.10;21.50;;;;;;;2.41;88.44;99177.47;126532;1093;104395;-77
2020/12/12 04:54:52;;;;;;;38.07;20.87;;;;;;;2.41;88.04;99174.05;126701;1098;104400;-77
2020/12/12 04:57:19;;;;;;;33.43;19.77;;;;;;;2.39;88.28;99181.80;126603;1093;104430;-77
2020/12/12 04:59:48;;;;;;;36.53;20.40;;;;;;;2.37;88.46;99178.40;126599;1098;105088;-77
2020/12/12 05:02:15;;;;;;;39.10;20.80;;;;;;;2.35;88.17;99180.16;126611;1093;104377;-77
2020/12/12 05:04:43;;;;;;;34.93;19.20;;;;;;;2.34;88.16;99172.46;126615;1099;104513;-77
2020/12/12 05:07:10;;;;;;;37.00;20.88;;;;;;;2.32;88.19;99174.17;126619;1093;104391;-77
2020/12/12 05:09:37;;;;;;;41.20;21.30;;;;;;;2.31;87.83;99186.20;126505;1100;104581;-77
2020/12/12 05:12:05;;;;;;;40.07;20.20;;;;;;;2.28;87.75;99182.83;126475;1093;104423;-77
2020/12/12 05:14:32;;;;;;;37.60;20.33;;;;;;;2.23;87.89;99182.05;126659;1093;104464;-77
2020/12/12 05:17:00;;;;;;;40.07;21.17;;;;;;;2.19;87.88;99188.98;126523;1099;104391;-78
2020/12/12 05:19:28;;;;;;;40.30;21.42;;;;;;;2.16;88.31;99186.45;126397;1096;103678;-77
2020/12/12 05:21:55;;;;;;;40.93;21.67;;;;;;;2.14;88.27;99175.31;126722;1093;104396;-77
2020/12/12 05:24:26;;;;;;;39.40;21.50;;;;;;;2.11;88.14;99177.94;126669;1093;104539;-77
2020/12/12 05:26:59;;;;;;;41.90;22.77;;;;;;;2.07;87.95;99177.14;126675;1098;104308;-77
2020/12/12 05:29:27;;;;;;;38.13;20.90;;;;;;;2.01;88.24;99195.24;126496;1098;104416;-78
2020/12/12 05:31:59;;;;;;;46.57;22.37;;;;;;;1.96;88.12;99189.30;126685;1099;102520;-77
2020/12/12 05:34:26;;;;;;;46.45;22.80;;;;;;;1.92;88.05;99185.07;126667;1093;104388;-77
2020/12/12 05:36:56;;;;;;;44.47;21.83;;;;;;;1.89;87.87;99181.70;126671;1093;104522;-77
2020/12/12 05:39:23;;;;;;;45.73;22.87;;;;;;;1.87;88.51;99186.02;126542;1093;104436;-78
2020/12/12 05:41:50;;;;;;;44.33;21.97;;;;;;;1.86;88.39;99185.17;126485;1093;104544;-77
2020/12/12 05:44:19;;;;;;;44.83;22.77;;;;;;;1.84;88.35;99197.20;126393;1099;104475;-77
2020/12/12 05:46:47;;;;;;;39.97;20.97;;;;;;;1.78;88.48;99203.25;126697;1093;104397;-76
2020/12/12 05:49:15;;;;;;;42.57;21.37;;;;;;;1.77;88.25;99187.85;126481;1093;104557;-77
2020/12/12 05:51:42;;;;;;;44.00;22.37;;;;;;;1.76;88.70;99199.86;126699;1098;103361;-78
2020/12/12 05:54:09;;;;;;;42.60;22.33;;;;;;;1.73;88.41;99199.91;126605;1093;104430;-77
2020/12/12 05:56:37;;;;;;;49.93;23.27;;;;;;;1.71;88.50;99206.78;126682;1093;104462;-77
2020/12/12 05:59:04;;;;;;;43.30;21.55;;;;;;;1.71;88.21;99198.23;126369;1096;104491;-77
2020/12/12 06:01:39;;;;;;;43.40;20.80;;;;;;;1.70;88.29;99186.25;126621;1093;103911;-77
2020/12/12 06:04:18;;;;;;;46.90;22.10;;;;;;;1.70;88.37;99199.95;126549;1093;104434;-77
2020/12/12 06:06:46;;;;;;;40.77;20.37;;;;;;;1.68;87.97;99198.27;126685;1092;104472;-77
2020/12/12 06:09:15;;;;;;;44.37;22.20;;;;;;;1.67;88.17;99194.85;126431;1093;101921;-76
2020/12/12 06:11:47;;;;;;;39.47;20.77;;;;;;;1.65;88.49;99190.61;126709;1098;104474;-77
2020/12/12 06:14:15;;;;;;;39.00;20.00;;;;;;;1.60;88.44;99189.80;126606;1099;104528;-77
2020/12/12 06:16:43;;;;;;;39.63;20.67;;;;;;;1.58;88.38;99188.97;126734;1094;104637;-77
2020/12/12 06:19:15;;;;;;;39.00;21.50;;;;;;;1.53;88.36;99201.88;126678;1093;103060;-78
2020/12/12 06:21:49;;;;;;;39.27;20.90;;;;;;;1.53;88.29;99196.74;126598;1098;104609;-77
2020/12/12 06:24:19;;;;;;;49.83;23.13;;;;;;;1.53;88.59;99201.03;126723;1093;105128;-77
2020/12/12 06:26:55;;;;;;;43.20;22.00;;;;;;;1.53;88.61;99211.31;126604;1093;104257;-77
2020/12/12 06:29:30;;;;;;;43.60;21.37;;;;;;;1.52;88.62;99195.04;126659;1098;104372;-77
2020/12/12 06:31:58;;;;;;;40.70;21.37;;;;;;;1.53;88.46;99201.03;126617;1093;104387;-76
2020/12/12 06:34:45;;;;;;;41.97;21.70;;;;;;;1.55;88.31;99195.00;126781;1098;102918;-78
2020/12/12 06:37:26;;;;;;;;;;;;;;;1.54;88.49;99198.44;126719;1093;104526;-78
2020/12/12 06:39:54;;;;;;;43.57;21.60;;;;;;;1.53;88.43;99203.60;126685;1093;104976;-77
2020/12/12 06:42:42;;;;;;;43.43;22.43;;;;;;;1.51;88.57;99201.05;126555;1093;104413;-78
2020/12/12 06:45:18;;;;;;;36.73;19.77;;;;;;;1.45;88.37;99203.70;126521;1099;104733;-77
2020/12/12 06:47:48;;;;;;;38.78;19.00;;;;;;;1.42;88.00;99203.72;126573;1093;104471;-77
2020/12/12 06:50:17;;;;;;;37.37;20.57;;;;;;;1.41;88.11;99196.88;126685;1093;102544;-78
2020/12/12 06:52:44;;;;;;;38.43;21.00;;;;;;;1.41;88.35;99192.59;126387;1094;104472;-77
2020/12/12 06:55:14;;;;;;;39.77;20.70;;;;;;;1.42;88.04;99201.15;126646;1098;104443;-77
2020/12/12 06:57:46;;;;;;;38.00;19.75;;;;;;;1.41;88.26;99200.30;126526;1093;104477;-76
2020/12/12 07:00:26;;;;;;;38.00;19.83;;;;;;;1.41;88.19;99202.02;126763;1093;103320;-77
2020/12/12 07:02:58;;;;;;;37.33;19.67;;;;;;;1.37;88.16;99201.20;126571;1093;104478;-77
2020/12/12 07:05:29;;;;;;;33.90;18.07;;;;;;;1.36;88.03;99202.08;126723;1093;104526;-77
2020/12/12 07:08:08;;;;;;;30.07;17.43;;;;;;;1.36;87.90;99219.22;126658;1093;104498;-77
2020/12/12 07:10:40;;;;;;;31.93;17.20;;;;;;;1.35;87.79;99207.23;126648;1093;104468;-77
2020/12/12 07:13:08;;;;;;;28.00;16.17;;;;;;;1.34;87.75;99198.69;126665;1093;104375;-78
2020/12/12 07:15:37;;;;;;;30.10;16.37;;;;;;;1.34;87.71;99206.39;126704;1098;105595;-77
2020/12/12 07:18:07;;;;;;;31.03;16.43;;;;;;;1.33;87.45;99208.98;126351;1096;104426;-77
2020/12/12 07:20:39;;;;;;;27.30;15.07;;;;;;;1.33;87.61;99209.83;126621;1098;104373;-77
2020/12/12 07:23:07;;;;;;;25.97;15.13;;;;;;;1.32;87.44;99213.27;126626;1093;104426;-77
2020/12/12 07:25:35;;;;;;;25.67;13.80;;;;;;;1.31;87.25;99210.72;126722;1093;107291;-77
2020/12/12 07:28:04;;;;;;;23.97;14.20;;;;;;;1.29;87.48;99212.45;126614;1093;104397;-78
2020/12/12 07:30:33;;;;;;;23.97;13.63;;;;;;;1.26;87.14;99215.03;126433;1100;104583;-77
2020/12/12 07:33:01;;;;;;;24.27;13.43;;;;;;;1.25;87.26;99216.75;126657;1093;104466;-78
2020/12/12 07:35:29;;;;;;;22.00;13.97;;;;;;;1.25;87.42;99221.04;126742;1098;104537;-78
2020/12/12 07:38:02;;;;;;;23.90;13.20;;;;;;;1.24;87.16;99212.48;126407;1094;104417;-78
2020/12/12 07:40:34;;;;;;;22.70;13.07;;;;;;;1.27;87.02;99214.20;126740;1099;103241;-78
2020/12/12 07:43:06;;;;;;;22.87;13.73;;;;;;;1.25;87.02;99221.04;126322;1099;104560;-77
2020/12/12 07:48:16;;;;;;;23.07;12.70;;;;;;;1.26;86.93;99240.72;126436;1093;104394;-77
2020/12/12 07:50:44;;;;;;;20.83;12.87;;;;;;;1.23;86.78;99233.91;126697;1093;104433;-77
2020/12/12 07:53:13;;;;;;;18.47;11.63;;;;;;;1.22;86.75;99221.92;126541;1093;104724;-77
2020/12/12 07:55:44;;;;;;;21.27;12.60;;;;;;;1.21;86.82;99215.94;126656;1093;103243;-79
2020/12/12 07:58:22;;;;;;;20.17;12.93;;;;;;;1.21;86.62;99223.64;126648;1093;104522;-78
2020/12/12 08:01:01;;;;;;;20.27;12.60;;;;;;;1.23;86.76;99227.91;126477;1093;104365;-79
2020/12/12 08:03:28;;;;;;;22.00;12.73;;;;;;;1.24;86.62;99232.19;126607;1093;104368;-78
2020/12/12 08:06:09;;;;;;;20.77;13.03;;;;;;;1.21;86.44;99228.78;126666;1093;104494;-78
2020/12/12 08:08:38;;;;;;;20.57;11.77;;;;;;;1.20;86.16;99233.94;126685;1093;104493;-78
2020/12/12 08:11:07;;;;;;;20.30;12.80;;;;;;;1.19;86.28;99243.36;126456;1093;104477;-78
2020/12/12 08:13:35;;;;;;;20.97;13.00;;;;;;;1.23;86.42;99240.76;126660;1093;104218;-78
2020/12/12 08:18:38;;;;;;;21.30;12.23;;;;;;;1.26;86.29;99239.03;126702;1098;104366;-78
2020/12/12 08:21:24;;;;;;;19.30;12.10;;;;;;;1.28;86.42;99237.30;126341;1100;104430;-78
2020/12/12 08:23:52;;;;;;;18.47;12.40;;;;;;;1.33;86.24;99235.52;126703;1093;104416;-78
2020/12/12 08:26:21;;;;;;;21.03;12.07;;;;;;;1.33;85.82;99230.38;126337;1096;104593;-78
2020/12/12 08:28:49;;;;;;;19.53;12.17;;;;;;;1.32;85.55;99238.95;126515;1100;104427;-77
2020/12/12 08:31:18;;;;;;;18.90;11.77;;;;;;;1.32;85.79;99241.52;126395;1096;104468;-78
2020/12/12 08:33:52;;;;;;;16.80;11.07;;;;;;;1.34;85.68;99241.50;126642;1093;104551;-78
2020/12/12 08:36:28;;;;;;;20.43;12.13;;;;;;;1.34;85.26;99236.37;126595;1094;104494;-78
2020/12/12 08:38:58;;;;;;;16.30;10.83;;;;;;;1.33;85.41;99240.66;126463;1093;104852;-78
2020/12/12 08:41:37;;;;;;;18.10;11.90;;;;;;;1.33;85.31;99242.38;126614;1093;104521;-77
2020/12/12 08:44:05;;;;;;;17.73;11.67;;;;;;;1.32;85.16;99240.67;126456;1093;104403;-78
2020/12/12 08:46:33;;;;;;;19.20;12.33;;;;;;;1.33;85.50;99244.95;126560;1093;104456;-78
2020/12/12 08:49:01;;;;;;;18.57;12.43;;;;;;;1.34;85.21;99244.08;126682;1093;104391;-77
2020/12/12 08:51:31;;;;;;;18.47;11.33;;;;;;;1.34;85.05;99250.06;126562;1093;104404;-77
2020/12/12 08:53:58;;;;;;;14.47;10.17;;;;;;;1.31;84.86;99250.10;126451;1093;104496;-78
2020/12/12 08:56:30;;;;;;;16.30;10.20;;;;;;;1.28;84.96;99242.44;126342;1096;104505;-78
2020/12/12 08:59:06;;;;;;;14.20;10.20;;;;;;;1.27;84.62;99238.16;126633;1093;104397;-78
2020/12/12 09:01:43;;;;;;;16.27;10.23;;;;;;;1.27;84.82;99234.74;126373;1093;104432;-78
2020/12/12 09:04:13;;;;;;;16.60;10.53;;;;;;;1.26;84.87;99249.30;126697;1093;104366;-77
2020/12/12 09:06:41;;;;;;;15.87;11.07;;;;;;;1.25;84.65;99223.61;126588;1093;104488;-77
2020/12/12 09:09:22;;;;;;;15.87;11.07;;;;;;;1.23;84.62;99228.77;126667;1098;104522;-77
2020/12/12 09:12:08;;;;;;;14.70;10.50;;;;;;;1.20;84.47;99224.52;126540;1093;104414;-78
2020/12/12 09:14:42;;;;;;;15.63;10.53;;;;;;;1.21;84.52;99226.22;126697;1093;104606;-78
2020/12/12 09:17:14;;;;;;;15.60;10.77;;;;;;;1.20;84.75;99229.66;126681;1093;104270;-78
2020/12/12 09:19:41;;;;;;;14.07;9.23;;;;;;;1.20;84.60;99229.66;126770;1093;104385;-78
2020/12/12 09:22:10;;;;;;;13.63;9.70;;;;;;;1.19;84.30;99232.23;126624;1093;103130;-78
2020/12/12 09:24:40;;;;;;;16.80;10.63;;;;;;;1.18;84.68;99227.97;126454;1093;104247;-78
2020/12/12 09:27:12;;;;;;;13.83;9.87;;;;;;;1.18;84.62;99236.53;126448;1093;104452;-77
2020/12/12 09:29:40;;;;;;;15.27;9.83;;;;;;;1.17;84.51;99239.97;126671;1093;104440;-77
2020/12/12 09:32:07;;;;;;;15.27;10.23;;;;;;;1.18;84.57;99221.12;126375;1093;104507;-77
2020/12/12 09:34:37;;;;;;;15.43;10.33;;;;;;;1.23;84.81;99227.91;126470;1099;104379;-76
2020/12/12 09:37:05;;;;;;;16.47;11.27;;;;;;;1.27;84.54;99229.61;126639;1093;104850;-78
2020/12/12 09:39:32;;;;;;;13.90;9.93;;;;;;;1.28;84.57;99223.60;126637;1098;104542;-78
2020/12/12 09:42:00;;;;;;;14.53;10.37;;;;;;;1.28;84.25;99226.17;126665;1093;104337;-77
2020/12/12 09:44:28;;;;;;;17.17;10.73;;;;;;;1.28;84.31;99221.03;126379;1093;104523;-77
2020/12/12 09:46:55;;;;;;;13.50;9.83;;;;;;;1.28;84.18;99231.31;126470;1093;103679;-77
2020/12/12 09:49:23;;;;;;;14.47;10.40;;;;;;;1.29;84.27;99245.85;126346;1093;104391;-77
2020/12/12 09:51:50;;;;;;;14.50;10.40;;;;;;;1.27;83.85;99234.74;126719;1093;104398;-77
2020/12/12 09:54:17;;;;;;;13.77;10.17;;;;;;;1.25;84.05;99232.16;126642;1093;104449;-77
2020/12/12 09:56:48;;;;;;;14.93;10.83;;;;;;;1.24;83.98;99225.33;126629;1093;102008;-78
2020/12/12 09:59:17;;;;;;;16.70;11.43;;;;;;;1.24;84.06;99227.89;126616;1093;104002;-77
2020/12/12 10:01:47;;;;;;;15.57;10.50;;;;;;;1.26;84.25;99217.60;126423;1093;104627;-78
2020/12/12 10:04:15;;;;;;;14.97;10.83;;;;;;;1.27;84.62;99222.75;126589;1093;104417;-77
2020/12/12 10:06:43;;;;;;;13.10;9.77;;;;;;;1.28;84.16;99227.02;126526;1096;104456;-77
2020/12/12 10:09:10;;;;;;;13.13;9.90;;;;;;;1.28;84.13;99223.60;126678;1098;104413;-78
2020/12/12 10:11:37;;;;;;;16.30;10.53;;;;;;;1.27;84.01;99245.87;126436;1099;104242;-79
2020/12/12 10:14:04;;;;;;;15.00;10.63;;;;;;;1.26;84.17;99217.60;126515;1098;104391;-77
2020/12/12 10:16:31;;;;;;;15.47;11.27;;;;;;;1.28;84.28;99209.04;126657;1093;104366;-78
2020/12/12 10:18:59;;;;;;;14.27;10.57;;;;;;;1.30;84.32;99219.30;126397;1096;104561;-78
2020/12/12 10:21:26;;;;;;;12.23;9.43;;;;;;;1.30;84.07;99225.28;126711;1093;102697;-77
2020/12/12 10:23:53;;;;;;;15.60;10.47;;;;;;;1.31;84.28;99206.43;126646;1093;104496;-78
2020/12/12 10:26:21;;;;;;;15.73;10.77;;;;;;;1.34;84.42;99208.11;126424;1100;104539;-78
2020/12/12 10:28:48;;;;;;;15.23;10.60;;;;;;;1.36;84.31;99201.23;126692;1093;104405;-78
2020/12/12 10:31:18;;;;;;;17.33;12.03;;;;;;;1.39;83.96;99214.03;126701;1093;102766;-78
2020/12/12 10:33:45;;;;;;;15.93;10.07;;;;;;;1.39;83.84;99212.31;126382;1099;104814;-79
2020/12/12 10:36:24;;;;;;;15.10;10.65;;;;;;;1.38;83.77;99208.05;126527;1093;104445;-77
2020/12/12 10:38:52;;;;;;;14.73;9.87;;;;;;;1.40;83.89;99205.45;126650;1093;104910;-77
2020/12/12 10:41:19;;;;;;;12.83;10.13;;;;;;;1.40;83.62;99197.75;126633;1093;104437;-77
2020/12/12 10:43:48;;;;;;;14.73;10.87;;;;;;;1.39;83.55;99214.03;126699;1098;104478;-78
2020/12/12 10:46:15;;;;;;;14.67;10.63;;;;;;;1.39;83.68;99202.04;126620;1098;103468;-78
2020/12/12 10:48:43;;;;;;;15.50;10.77;;;;;;;1.39;83.85;99199.47;126631;1093;104468;-77
2020/12/12 10:51:10;;;;;;;15.00;10.83;;;;;;;1.40;84.49;99196.03;126649;1093;104916;-78
2020/12/12 10:53:37;;;;;;;14.60;10.97;;;;;;;1.41;84.29;99205.44;126449;1100;104459;-77
2020/12/12 10:56:05;;;;;;;16.30;11.55;;;;;;;1.44;84.11;99204.58;126594;1098;101983;-77
2020/12/12 10:58:33;;;;;;;17.33;11.40;;;;;;;1.48;84.11;99203.66;126689;1093;104435;-78
2020/12/12 11:01:01;;;;;;;18.33;11.83;;;;;;;1.50;84.16;99217.34;126301;1097;104401;-77
2020/12/12 11:03:28;;;;;;;18.13;12.77;;;;;;;1.50;83.84;99205.34;126360;1096;104430;-78
2020/12/12 11:05:55;;;;;;;16.83;11.80;;;;;;;1.52;83.80;99197.61;126358;1096;104487;-78
2020/12/12 11:08:23;;;;;;;16.47;11.43;;;;;;;1.54;83.41;99216.43;126523;1093;105628;-77
2020/12/12 11:10:51;;;;;;;16.55;11.70;;;;;;;1.53;83.43;99207.02;126388;1093;103332;-78
2020/12/12 11:13:19;;;;;;;18.12;11.63;;;;;;;1.51;83.50;99201.91;126412;1100;104526;-77
2020/12/12 11:15:47;;;;;;;17.73;11.87;;;;;;;1.55;83.70;99201.86;126614;1099;104624;-77
2020/12/12 11:18:14;;;;;;;19.90;13.10;;;;;;;1.57;83.41;99206.10;126328;1093;104494;-77
2020/12/12 11:20:41;;;;;;;18.73;12.60;;;;;;;1.58;83.25;99199.25;126463;1097;103441;-77
2020/12/12 11:23:08;;;;;;;19.80;12.85;;;;;;;1.60;83.16;99203.49;126533;1093;104989;-78